createdAt,value
2023-03-31T00:00:42.654Z,92.33
2023-03-31T00:03:26.563Z,92.24
2023-03-31T00:06:02.566Z,92.23
2023-03-31T00:08:40.675Z,92.34
2023-03-31T00:11:15.970Z,92.28
2023-03-31T00:13:52.043Z,92.36
2023-03-31T00:16:27.844Z,92.29
2023-03-31T00:19:04.827Z,92.11
2023-03-31T00:21:39.617Z,92.14
2023-03-31T00:24:23.524Z,92.13
2023-03-31T00:26:57.604Z,92.06
2023-03-31T00:29:34.948Z,92.09
2023-03-31T00:32:11.871Z,92.02
2023-03-31T00:34:48.283Z,92.03
2023-03-31T00:37:23.169Z,91.99
2023-03-31T00:39:58.761Z,92.05
2023-03-31T00:42:41.690Z,92.11
2023-03-31T00:45:33.720Z,92.15
2023-03-31T00:48:17.484Z,92.15
2023-03-31T00:50:59.451Z,92.15
2023-03-31T00:53:38.793Z,92.07
2023-03-31T00:56:18.579Z,92.10
2023-03-31T00:59:02.127Z,92.14
2023-03-31T01:01:40.359Z,92.08
2023-03-31T01:04:17.721Z,92.06
2023-03-31T01:07:01.633Z,92.05
2023-03-31T01:09:36.573Z,91.85
2023-03-31T01:12:13.975Z,92.00
2023-03-31T01:14:48.850Z,91.98
2023-03-31T01:17:29.369Z,91.96
2023-03-31T01:20:17.151Z,92.11
2023-03-31T01:23:24.085Z,92.05
2023-03-31T01:26:28.192Z,92.19
2023-03-31T01:29:08.766Z,92.43
2023-03-31T01:32:18.646Z,92.52
2023-03-31T01:35:21.336Z,92.52
2023-03-31T01:38:53.088Z,92.61
2023-03-31T01:44:58.182Z,92.75
2023-03-31T01:47:41.031Z,92.94
2023-03-31T01:50:25.510Z,92.73
2023-03-31T01:53:08.446Z,92.66
2023-03-31T01:55:50.820Z,92.59
2023-03-31T01:58:32.580Z,92.45
2023-03-31T02:01:13.717Z,92.28
2023-03-31T02:03:56.984Z,92.33
2023-03-31T02:06:36.407Z,92.11
2023-03-31T02:09:18.472Z,92.10
2023-03-31T02:11:56.579Z,91.85
2023-03-31T02:14:37.985Z,91.68
2023-03-31T02:17:22.003Z,91.56
2023-03-31T02:20:05.966Z,91.46
2023-03-31T02:22:44.272Z,91.40
2023-03-31T02:25:24.697Z,91.34
2023-03-31T02:28:02.577Z,91.20
2023-03-31T02:30:45.739Z,91.09
2023-03-31T02:33:22.119Z,91.00
2023-03-31T02:35:58.843Z,90.96
2023-03-31T02:38:40.811Z,90.82
2023-03-31T02:41:15.702Z,90.93
2023-03-31T02:43:52.072Z,90.84
2023-03-31T02:46:32.496Z,90.75
2023-03-31T02:49:12.252Z,90.60
2023-03-31T02:52:11.749Z,90.58
2023-03-31T02:55:23.283Z,90.45
2023-03-31T02:58:24.152Z,90.30
2023-03-31T03:01:18.220Z,90.29
2023-03-31T03:04:11.570Z,90.23
2023-03-31T03:07:01.317Z,90.34
2023-03-31T03:09:47.243Z,90.24
2023-03-31T03:12:28.376Z,90.29
2023-03-31T03:15:10.664Z,90.31
2023-03-31T03:17:48.869Z,90.54
2023-03-31T03:20:25.411Z,90.66
2023-03-31T03:23:01.248Z,90.63
2023-03-31T03:25:37.318Z,90.61
2023-03-31T03:28:14.068Z,90.70
2023-03-31T03:30:50.112Z,90.45
2023-03-31T03:33:25.218Z,90.23
2023-03-31T03:35:59.783Z,90.25
2023-03-31T03:38:35.536Z,90.08
2023-03-31T03:41:12.994Z,90.23
2023-03-31T03:43:47.939Z,89.96
2023-03-31T03:46:25.240Z,90.05
2023-03-31T03:49:00.434Z,89.95
2023-03-31T03:51:37.172Z,89.76
2023-03-31T03:54:12.319Z,89.76
2023-03-31T03:56:46.748Z,89.74
2023-03-31T03:59:23.767Z,89.88
2023-03-31T04:01:59.698Z,89.82
2023-03-31T04:04:33.813Z,89.59
2023-03-31T04:07:08.752Z,89.66
2023-03-31T04:09:42.981Z,89.51
2023-03-31T04:12:42.127Z,89.58
2023-03-31T04:15:17.190Z,89.71
2023-03-31T04:17:55.953Z,89.62
2023-03-31T04:20:32.638Z,89.78
2023-03-31T04:23:10.468Z,89.81
2023-03-31T04:25:47.614Z,90.00
2023-03-31T04:28:24.619Z,90.30
2023-03-31T04:31:02.961Z,90.14
2023-03-31T04:33:46.467Z,90.29
2023-03-31T04:36:22.083Z,90.26
2023-03-31T04:38:59.755Z,90.39
2023-03-31T04:41:36.384Z,90.39
2023-03-31T04:44:10.519Z,90.46
2023-03-31T04:46:45.729Z,90.62
2023-03-31T04:49:20.276Z,90.47
2023-03-31T04:51:56.345Z,90.62
2023-03-31T04:54:32.820Z,90.49
2023-03-31T04:57:07.718Z,90.56
2023-03-31T04:59:43.125Z,90.52
2023-03-31T05:02:25.751Z,90.69
2023-03-31T05:05:02.958Z,90.79
2023-03-31T05:07:38.792Z,90.63
2023-03-31T05:10:16.332Z,90.54
2023-03-31T05:12:51.524Z,90.36
2023-03-31T05:15:26.620Z,90.52
2023-03-31T05:18:02.970Z,90.49
2023-03-31T05:20:40.681Z,90.49
2023-03-31T05:23:16.508Z,90.61
2023-03-31T05:25:53.819Z,90.70
2023-03-31T05:28:27.675Z,90.64
2023-03-31T05:31:04.293Z,90.60
2023-03-31T05:33:42.477Z,90.47
2023-03-31T05:36:19.716Z,90.60
2023-03-31T05:38:57.854Z,90.68
2023-03-31T05:41:31.570Z,90.72
2023-03-31T05:44:06.071Z,90.77
2023-03-31T05:46:41.117Z,90.83
2023-03-31T05:49:17.611Z,90.75
2023-03-31T05:51:52.369Z,90.81
2023-03-31T05:54:28.031Z,90.70
2023-03-31T05:57:03.412Z,90.69
2023-03-31T05:59:41.079Z,90.60
2023-03-31T06:02:18.458Z,90.39
2023-03-31T06:04:56.878Z,90.29
2023-03-31T06:07:33.286Z,90.45
2023-03-31T06:10:11.667Z,90.32
2023-03-31T06:12:46.674Z,90.39
2023-03-31T06:15:21.937Z,90.31
2023-03-31T06:17:58.392Z,90.54
2023-03-31T06:20:33.900Z,90.43
2023-03-31T06:23:10.215Z,90.55
2023-03-31T06:25:50.819Z,90.53
2023-03-31T06:28:25.709Z,90.63
2023-03-31T06:31:07.434Z,90.54
2023-03-31T06:33:44.887Z,90.53
2023-03-31T06:36:21.598Z,90.53
2023-03-31T06:38:56.882Z,90.49
2023-03-31T06:41:32.590Z,90.54
2023-03-31T06:44:09.277Z,90.51
2023-03-31T06:46:45.880Z,90.40
2023-03-31T06:49:23.663Z,90.35
2023-03-31T06:51:59.818Z,90.38
2023-03-31T06:54:36.167Z,90.40
2023-03-31T06:57:10.977Z,90.31
2023-03-31T06:59:46.217Z,90.42
2023-03-31T07:02:23.534Z,90.48
2023-03-31T07:04:58.992Z,90.46
2023-03-31T07:07:38.381Z,90.29
2023-03-31T07:10:17.191Z,90.24
2023-03-31T07:12:54.672Z,90.18
2023-03-31T07:15:31.634Z,90.05
2023-03-31T07:18:07.920Z,89.75
2023-03-31T07:20:43.942Z,89.72
2023-03-31T07:23:18.424Z,89.54
2023-03-31T07:25:53.888Z,89.48
2023-03-31T07:28:31.400Z,89.53
2023-03-31T07:31:19.185Z,89.41
2023-03-31T07:33:54.484Z,89.32
2023-03-31T07:36:31.091Z,89.07
2023-03-31T07:39:06.763Z,88.85
2023-03-31T07:41:43.074Z,88.72
2023-03-31T07:44:22.437Z,88.40
2023-03-31T07:46:59.326Z,88.07
2023-03-31T07:49:34.804Z,87.89
2023-03-31T07:52:10.713Z,87.93
2023-03-31T07:54:46.297Z,87.88
2023-03-31T07:57:21.247Z,87.73
2023-03-31T07:59:56.605Z,87.52
2023-03-31T08:02:31.574Z,87.32
2023-03-31T08:05:08.212Z,87.30
2023-03-31T08:07:46.506Z,86.97
2023-03-31T08:10:22.597Z,86.85
2023-03-31T08:12:58.619Z,86.31
2023-03-31T08:15:36.048Z,86.04
2023-03-31T08:18:10.299Z,86.11
2023-03-31T08:20:46.169Z,86.19
2023-03-31T08:23:22.794Z,86.24
2023-03-31T08:26:08.467Z,86.03
2023-03-31T08:28:44.173Z,85.77
2023-03-31T08:31:21.997Z,85.66
2023-03-31T08:33:56.630Z,85.85
2023-03-31T08:36:32.965Z,85.35
2023-03-31T08:39:09.110Z,84.92
2023-03-31T08:42:02.885Z,84.69
2023-03-31T08:44:42.618Z,84.54
2023-03-31T08:47:21.508Z,84.36
2023-03-31T08:50:00.773Z,83.98
2023-03-31T08:52:39.786Z,83.29
2023-03-31T08:55:20.719Z,82.85
2023-03-31T08:58:02.856Z,82.96
2023-03-31T09:00:48.936Z,83.12
2023-03-31T09:03:31.838Z,83.33
2023-03-31T09:06:15.341Z,83.06
2023-03-31T09:08:54.333Z,83.26
2023-03-31T09:11:37.374Z,82.64
2023-03-31T09:14:48.380Z,81.99
2023-03-31T09:17:28.018Z,81.87
2023-03-31T09:20:10.185Z,82.04
2023-03-31T09:22:54.750Z,81.82
2023-03-31T09:25:34.909Z,81.22
2023-03-31T09:28:15.818Z,81.00
2023-03-31T09:30:52.683Z,80.89
2023-03-31T09:33:32.959Z,80.94
2023-03-31T09:36:16.318Z,80.64
2023-03-31T09:38:51.396Z,80.65
2023-03-31T09:41:27.868Z,80.62
2023-03-31T09:44:02.317Z,80.28
2023-03-31T09:46:40.300Z,79.77
2023-03-31T09:49:21.464Z,79.76
2023-03-31T09:52:04.066Z,79.68
2023-03-31T09:54:49.658Z,79.86
2023-03-31T09:57:33.789Z,79.70
2023-03-31T10:00:17.159Z,79.29
2023-03-31T10:02:53.705Z,78.95
2023-03-31T10:05:58.048Z,79.00
2023-03-31T10:08:37.093Z,78.73
2023-03-31T10:11:15.786Z,78.75
2023-03-31T10:13:54.148Z,78.75
2023-03-31T10:16:36.836Z,78.73
2023-03-31T10:19:24.129Z,78.67
2023-03-31T10:22:02.939Z,78.52
2023-03-31T10:24:43.233Z,78.23
2023-03-31T10:27:27.432Z,78.38
2023-03-31T10:30:04.954Z,78.04
2023-03-31T10:32:43.424Z,78.16
2023-03-31T10:35:30.200Z,78.03
2023-03-31T10:38:09.679Z,78.10
2023-03-31T10:40:52.251Z,78.10
2023-03-31T10:43:32.142Z,77.87
2023-03-31T10:46:09.344Z,78.19
2023-03-31T10:48:46.390Z,77.76
2023-03-31T10:51:23.445Z,77.55
2023-03-31T10:54:03.582Z,77.27
2023-03-31T10:56:48.662Z,77.57
2023-03-31T10:59:35.234Z,77.70
2023-03-31T11:02:59.219Z,77.42
2023-03-31T11:05:42.287Z,77.45
2023-03-31T11:08:33.329Z,77.32
2023-03-31T11:11:21.939Z,76.74
2023-03-31T11:14:06.551Z,76.45
2023-03-31T11:16:53.598Z,76.11
2023-03-31T11:19:41.696Z,75.66
2023-03-31T11:22:25.695Z,75.25
2023-03-31T11:25:14.008Z,74.45
2023-03-31T11:28:21.789Z,74.40
2023-03-31T11:31:08.889Z,73.90
2023-03-31T11:33:59.936Z,73.76
2023-03-31T11:36:46.488Z,73.22
2023-03-31T11:39:54.245Z,73.21
2023-03-31T11:42:37.231Z,73.15
2023-03-31T11:45:19.868Z,72.76
2023-03-31T11:48:00.964Z,72.53
2023-03-31T11:50:40.703Z,72.63
2023-03-31T11:53:25.526Z,72.40
2023-03-31T11:56:05.602Z,72.46
2023-03-31T11:58:47.463Z,72.45
2023-03-31T12:01:28.162Z,72.45
2023-03-31T12:04:09.575Z,71.93
2023-03-31T12:06:47.499Z,71.59
2023-03-31T12:09:29.809Z,71.22
2023-03-31T12:12:12.062Z,71.38
2023-03-31T12:14:53.812Z,71.50
2023-03-31T12:17:31.449Z,70.95
2023-03-31T12:20:16.382Z,71.04
2023-03-31T12:22:53.356Z,70.62
2023-03-31T12:25:31.166Z,70.40
2023-03-31T12:28:08.407Z,70.52
2023-03-31T12:30:45.234Z,70.41
2023-03-31T12:33:27.356Z,70.26
2023-03-31T12:36:16.183Z,70.19
2023-03-31T12:39:13.357Z,70.09
2023-03-31T12:42:06.393Z,69.94
2023-03-31T12:44:53.293Z,69.70
2023-03-31T12:47:48.832Z,69.62
2023-03-31T12:50:52.424Z,70.35
2023-03-31T12:53:46.348Z,71.07
2023-03-31T12:56:26.529Z,72.76
2023-03-31T12:59:35.355Z,74.04
2023-03-31T13:02:42.592Z,75.21
2023-03-31T13:05:50.068Z,76.25
2023-03-31T13:08:55.277Z,77.20
2023-03-31T13:11:50.163Z,77.88
2023-03-31T13:14:27.444Z,78.62
2023-03-31T13:17:25.440Z,79.10
2023-03-31T13:20:21.505Z,79.63
2023-03-31T13:23:04.825Z,80.36
2023-03-31T13:25:50.138Z,80.61
2023-03-31T13:28:34.627Z,81.02
2023-03-31T13:31:12.199Z,81.42
2023-03-31T13:33:57.631Z,81.69
2023-03-31T13:37:08.966Z,81.89
2023-03-31T13:40:08.665Z,81.84
2023-03-31T13:43:29.423Z,81.73
2023-03-31T13:46:58.356Z,81.13
2023-03-31T13:49:54.419Z,80.27
2023-03-31T13:52:49.361Z,80.39
2023-03-31T13:55:56.677Z,79.55
2023-03-31T13:58:49.753Z,79.24
2023-03-31T14:01:49.195Z,79.43
2023-03-31T14:04:59.266Z,79.57
2023-03-31T14:07:41.146Z,80.00
2023-03-31T14:10:32.167Z,80.43
2023-03-31T14:13:18.183Z,80.87
2023-03-31T14:15:59.592Z,81.41
2023-03-31T14:18:37.556Z,81.43
2023-03-31T14:21:24.084Z,81.52
2023-03-31T14:24:09.372Z,81.69
2023-03-31T14:27:00.560Z,81.80
2023-03-31T14:29:55.354Z,82.63
2023-03-31T14:32:45.041Z,83.54
2023-03-31T14:35:34.802Z,83.94
2023-03-31T14:38:19.033Z,83.83
2023-03-31T14:41:04.592Z,83.53
2023-03-31T14:43:50.556Z,83.23
2023-03-31T14:46:28.323Z,83.37
2023-03-31T14:49:25.818Z,83.54
2023-03-31T14:52:15.490Z,83.55
2023-03-31T14:55:08.497Z,83.75
2023-03-31T14:57:46.947Z,83.84
2023-03-31T15:00:33.390Z,83.84
2023-03-31T15:03:16.587Z,83.77
2023-03-31T15:05:52.096Z,84.03
2023-03-31T15:08:29.994Z,84.28
2023-03-31T15:14:04.447Z,84.03
2023-03-31T15:16:47.803Z,84.05
2023-03-31T15:19:26.155Z,83.66
2023-03-31T15:22:06.739Z,83.59
2023-03-31T15:24:43.453Z,83.65
2023-03-31T15:27:35.815Z,83.59
2023-03-31T15:30:21.359Z,83.36
2023-03-31T15:33:11.147Z,83.04
2023-03-31T15:35:56.378Z,82.77
2023-03-31T15:38:33.851Z,82.48
2023-03-31T15:41:17.541Z,82.43
2023-03-31T15:44:06.769Z,82.26
2023-03-31T15:47:04.185Z,82.49
2023-03-31T15:49:39.589Z,82.55
2023-03-31T15:52:26.298Z,82.60
2023-03-31T15:55:02.143Z,82.59
2023-03-31T15:57:38.410Z,82.51
2023-03-31T16:00:48.291Z,82.54
2023-03-31T16:03:29.352Z,82.46
2023-03-31T16:06:11.676Z,82.47
2023-03-31T16:08:49.267Z,82.55
2023-03-31T16:11:30.550Z,82.73
2023-03-31T16:14:14.227Z,82.68
2023-03-31T16:16:55.390Z,82.83
2023-03-31T16:19:33.757Z,82.96
2023-03-31T16:22:09.184Z,83.01
2023-03-31T16:24:45.560Z,83.01
2023-03-31T16:27:20.291Z,82.98
2023-03-31T16:30:06.984Z,82.93
2023-03-31T16:32:41.736Z,82.84
2023-03-31T16:35:16.815Z,82.85
2023-03-31T16:37:55.774Z,82.98
2023-03-31T16:40:30.381Z,82.93
2023-03-31T16:43:17.644Z,82.98
2023-03-31T16:45:54.039Z,82.99
2023-03-31T16:48:34.383Z,83.12
2023-03-31T16:51:09.897Z,83.15
2023-03-31T16:53:43.578Z,83.23
2023-03-31T16:56:20.229Z,83.32
2023-03-31T16:58:55.351Z,83.43
2023-03-31T17:01:31.445Z,83.38
2023-03-31T17:04:06.294Z,83.31
2023-03-31T17:06:41.676Z,83.30
2023-03-31T17:09:17.891Z,83.35
2023-03-31T17:11:53.659Z,83.47
2023-03-31T17:14:29.074Z,83.39
2023-03-31T17:17:04.207Z,83.40
2023-03-31T17:19:38.692Z,83.31
2023-03-31T17:22:13.698Z,83.24
2023-03-31T17:24:53.385Z,83.28
2023-03-31T17:27:30.189Z,83.28
2023-03-31T17:30:07.339Z,83.31
2023-03-31T17:32:41.506Z,83.15
2023-03-31T17:35:21.331Z,83.24
2023-03-31T17:37:56.473Z,83.17
2023-03-31T17:40:33.880Z,83.17
2023-03-31T17:43:08.409Z,83.24
2023-03-31T17:45:43.443Z,83.27
2023-03-31T17:48:19.074Z,83.27
2023-03-31T17:50:55.268Z,83.28
2023-03-31T17:53:28.748Z,83.38
2023-03-31T17:56:04.379Z,83.47
2023-03-31T17:58:40.539Z,83.41
2023-03-31T18:01:17.951Z,83.41
2023-03-31T18:03:56.913Z,83.43
2023-03-31T18:06:34.089Z,83.47
2023-03-31T18:09:09.322Z,83.50
2023-03-31T18:11:44.173Z,83.51
2023-03-31T18:14:18.619Z,83.49
2023-03-31T18:16:55.926Z,83.41
2023-03-31T18:19:30.425Z,83.44
2023-03-31T18:22:07.029Z,83.59
2023-03-31T18:24:41.831Z,83.60
2023-03-31T18:27:19.201Z,83.60
2023-03-31T18:29:56.846Z,83.73
2023-03-31T18:32:33.071Z,83.64
2023-03-31T18:35:17.333Z,83.65
2023-03-31T18:37:52.363Z,83.66
2023-03-31T18:40:26.952Z,83.65
2023-03-31T18:43:02.496Z,83.78
2023-03-31T18:45:39.188Z,83.73
2023-03-31T18:48:15.400Z,83.82
2023-03-31T18:50:52.114Z,83.88
2023-03-31T18:53:28.121Z,83.92
2023-03-31T18:56:04.488Z,83.98
2023-03-31T18:58:40.204Z,84.05
2023-03-31T19:01:14.756Z,84.15
2023-03-31T19:03:54.921Z,84.36
2023-03-31T19:06:30.746Z,84.69
2023-03-31T19:09:07.086Z,85.00
2023-03-31T19:11:46.219Z,85.33
2023-03-31T19:14:23.116Z,85.74
2023-03-31T19:16:58.197Z,85.98
2023-03-31T19:19:35.450Z,86.39
2023-03-31T19:22:09.735Z,89.58
2023-03-31T19:24:45.450Z,93.29
2023-03-31T19:27:23.194Z,95.30
2023-03-31T19:29:58.773Z,96.77
2023-03-31T19:32:34.376Z,97.99
2023-03-31T19:35:11.504Z,99.06
2023-03-31T19:37:46.265Z,99.84
2023-03-31T19:40:22.209Z,100.00
2023-03-31T19:42:58.576Z,100.00
2023-03-31T19:45:34.836Z,100.00
2023-03-31T19:48:12.002Z,100.00
2023-03-31T19:50:53.004Z,100.00
2023-03-31T19:53:28.143Z,100.00
2023-03-31T19:56:09.266Z,100.00
2023-03-31T19:58:45.434Z,100.00
2023-03-31T20:01:24.440Z,100.00
2023-03-31T20:04:00.057Z,100.00
2023-03-31T20:06:39.225Z,100.00
2023-03-31T20:09:18.345Z,100.00
2023-03-31T20:11:54.045Z,100.00
2023-03-31T20:14:30.061Z,100.00
2023-03-31T20:17:07.796Z,100.00
2023-03-31T20:19:45.118Z,100.00
2023-03-31T20:22:18.658Z,100.00
2023-03-31T20:24:53.614Z,100.00
2023-03-31T20:27:28.903Z,100.00
2023-03-31T20:30:05.697Z,100.00
2023-03-31T20:32:41.975Z,100.00
2023-03-31T20:35:17.824Z,100.00
2023-03-31T20:37:52.883Z,100.00
2023-03-31T20:40:27.189Z,100.00
2023-03-31T20:43:04.669Z,100.00
2023-03-31T20:45:40.138Z,100.00
2023-03-31T20:48:15.290Z,100.00
2023-03-31T20:50:50.128Z,100.00
2023-03-31T20:53:26.606Z,100.00
2023-03-31T20:56:02.866Z,100.00
2023-03-31T20:58:39.679Z,100.00
2023-03-31T21:01:18.282Z,100.00
2023-03-31T21:03:52.396Z,100.00
2023-03-31T21:06:28.488Z,100.00
2023-03-31T21:09:04.268Z,100.00
2023-03-31T21:11:40.710Z,100.00
2023-03-31T21:14:18.267Z,100.00
2023-03-31T21:16:53.908Z,100.00
2023-03-31T21:19:29.623Z,100.00
2023-03-31T21:22:04.830Z,100.00
2023-03-31T21:24:40.933Z,100.00
2023-03-31T21:27:18.565Z,100.00
2023-03-31T21:29:54.089Z,100.00
2023-03-31T21:32:29.790Z,100.00
2023-03-31T21:35:15.031Z,100.00
2023-03-31T21:37:50.667Z,100.00
2023-03-31T21:40:24.770Z,100.00
2023-03-31T21:43:04.132Z,100.00
2023-03-31T21:45:43.265Z,100.00
2023-03-31T21:48:26.092Z,100.00
2023-03-31T21:51:03.765Z,100.00
2023-03-31T21:53:40.333Z,100.00
2023-03-31T21:56:15.538Z,100.00
2023-03-31T21:58:54.658Z,100.00
2023-03-31T22:01:30.848Z,100.00
2023-03-31T22:04:06.800Z,100.00
2023-03-31T22:06:43.175Z,100.00
2023-03-31T22:09:18.473Z,100.00
2023-03-31T22:11:54.379Z,100.00
2023-03-31T22:14:29.754Z,100.00
2023-03-31T22:17:04.335Z,100.00
2023-03-31T22:19:39.829Z,100.00
2023-03-31T22:22:14.690Z,100.00
2023-03-31T22:24:48.585Z,100.00
2023-03-31T22:27:22.865Z,100.00
2023-03-31T22:29:57.358Z,100.00
2023-03-31T22:32:34.104Z,100.00
2023-03-31T22:35:13.256Z,100.00
2023-03-31T22:37:48.300Z,100.00
2023-03-31T22:40:23.307Z,100.00
2023-03-31T22:42:58.738Z,100.00
2023-03-31T22:45:33.518Z,100.00
2023-03-31T22:48:09.907Z,100.00
2023-03-31T22:50:46.528Z,100.00
2023-03-31T22:53:30.230Z,100.00
2023-03-31T22:56:10.768Z,100.00
2023-03-31T22:58:46.306Z,100.00
2023-03-31T23:01:23.741Z,100.00
2023-03-31T23:04:01.128Z,100.00
2023-03-31T23:06:36.709Z,100.00
2023-03-31T23:09:11.745Z,100.00
2023-03-31T23:11:48.234Z,100.00
2023-03-31T23:14:23.577Z,100.00
2023-03-31T23:16:58.293Z,100.00
2023-03-31T23:19:32.537Z,100.00
2023-03-31T23:22:07.882Z,100.00
2023-03-31T23:24:44.710Z,100.00
2023-03-31T23:27:21.147Z,100.00
2023-03-31T23:29:59.618Z,100.00
2023-03-31T23:32:34.826Z,100.00
2023-03-31T23:35:13.429Z,100.00
2023-03-31T23:37:48.491Z,100.00
2023-03-31T23:40:24.489Z,100.00
2023-03-31T23:43:00.897Z,100.00
2023-03-31T23:45:35.572Z,100.00
2023-03-31T23:48:11.445Z,100.00
2023-03-31T23:50:47.716Z,100.00
2023-03-31T23:53:23.906Z,100.00
2023-03-31T23:56:01.238Z,100.00
2023-03-31T23:58:37.300Z,100.00
